Pagrindinis puslapis
METAR-TAF:

METAR-TAF

Oro uostai :

Tarptautinis Federico Fellini oro uostas

Riminis, Italija

platuma: 44-02N, ilguma: 012-37E, Aukštis: 12 m

Dabartinis oras

Ataskaita buvo paskelbta 39 minutes, ne 23:20 UTC
Vėjas 3 kt iš Pietų
Temperatūra 5°C
Drėgmė 75%
Slėgis 1028 hPa
Matomumas 10 km arba daugiau

METAR: LIPR 072320Z AUTO 19003KT 9999 NCD 05/01 Q1028

Laikas: 01:59 (23:59 UTC)

Prognozė

Ataskaita buvo paskelbta 6 valandos ir 59 minutes, ne 17:00 UTC
Prognozė galioja nuo 07 metu 18 UTC su 08 metu 03 UTC
Vėjas 5 kt nuo kintamojo kryptimis
Matomumas 10 km arba daugiau
nėra debesų žemiau 1500 m ir nėra kamuolinių lietaus debesų

TAF: LIPR 071700Z 0718/0803 VRB05KT CAVOK

Orai ataskaitas ir orų prognozės (METAR, TAF).

turimą stotys yra geltonos ir raudonos taškus žemėlapyje.

Perkelti pele per norėdami pamatyti stoties vardą.

Tada spustelėkite, norėdami matyti oro stebėjimo ir prognozės.

Norėdami pakeisti žemėlapį: spustelėkite ant žalios mygtukų su juodo kryžiaus žemyn,; žalią mygtuką su brūkšneliu, jei norite nutolinti; arba žalių rodyklių gretimoms žemėlapius.


METAR-TAF: